sensor_id;sensor_type;location;lat;lon;timestamp;temperature;humidity
1948;DHT22;974;52.400;9.818;2023-05-23T00:02:13;16.80;99.90
1948;DHT22;974;52.400;9.818;2023-05-23T00:04:39;16.80;99.90
1948;DHT22;974;52.400;9.818;2023-05-23T00:07:05;16.80;99.90
1948;DHT22;974;52.400;9.818;2023-05-23T00:09:30;16.80;99.90
1948;DHT22;974;52.400;9.818;2023-05-23T00:11:56;16.80;99.90
1948;DHT22;974;52.400;9.818;2023-05-23T00:14:21;16.80;99.90
1948;DHT22;974;52.400;9.818;2023-05-23T00:16:48;16.90;99.90
1948;DHT22;974;52.400;9.818;2023-05-23T00:19:14;16.80;99.90
1948;DHT22;974;52.400;9.818;2023-05-23T00:21:41;16.80;99.90
1948;DHT22;974;52.400;9.818;2023-05-23T00:24:08;16.80;99.90
1948;DHT22;974;52.400;9.818;2023-05-23T00:26:34;16.80;99.90
1948;DHT22;974;52.400;9.818;2023-05-23T00:29:00;16.80;99.90
1948;DHT22;974;52.400;9.818;2023-05-23T00:31:26;16.80;99.90
1948;DHT22;974;52.400;9.818;2023-05-23T00:33:51;16.80;99.90
1948;DHT22;974;52.400;9.818;2023-05-23T00:36:17;16.80;99.90
1948;DHT22;974;52.400;9.818;2023-05-23T00:38:42;16.80;99.90
1948;DHT22;974;52.400;9.818;2023-05-23T00:41:10;16.70;99.90
1948;DHT22;974;52.400;9.818;2023-05-23T00:43:35;16.80;99.90
1948;DHT22;974;52.400;9.818;2023-05-23T00:46:01;16.80;99.90
1948;DHT22;974;52.400;9.818;2023-05-23T00:48:27;16.80;99.90
1948;DHT22;974;52.400;9.818;2023-05-23T00:50:54;16.70;99.90
1948;DHT22;974;52.400;9.818;2023-05-23T00:53:20;16.70;99.90
1948;DHT22;974;52.400;9.818;2023-05-23T00:55:46;16.70;99.90
1948;DHT22;974;52.400;9.818;2023-05-23T00:58:12;16.70;99.90
1948;DHT22;974;52.400;9.818;2023-05-23T01:00:40;16.70;99.90
1948;DHT22;974;52.400;9.818;2023-05-23T01:03:06;16.70;99.90
1948;DHT22;974;52.400;9.818;2023-05-23T01:05:31;16.60;99.90
1948;DHT22;974;52.400;9.818;2023-05-23T01:21:26;16.30;99.90
1948;DHT22;974;52.400;9.818;2023-05-23T01:24:16;16.10;99.90
1948;DHT22;974;52.400;9.818;2023-05-23T01:29:38;16.10;99.90
1948;DHT22;974;52.400;9.818;2023-05-23T01:32:07;16.00;99.90
1948;DHT22;974;52.400;9.818;2023-05-23T01:34:35;16.00;99.90
1948;DHT22;974;52.400;9.818;2023-05-23T01:37:07;16.00;99.90
1948;DHT22;974;52.400;9.818;2023-05-23T01:39:33;15.90;99.90
1948;DHT22;974;52.400;9.818;2023-05-23T01:41:59;15.80;99.90
1948;DHT22;974;52.400;9.818;2023-05-23T01:44:25;15.70;99.90
1948;DHT22;974;52.400;9.818;2023-05-23T01:46:50;15.50;99.90
1948;DHT22;974;52.400;9.818;2023-05-23T01:49:17;15.40;99.90
1948;DHT22;974;52.400;9.818;2023-05-23T01:51:43;15.40;99.90
1948;DHT22;974;52.400;9.818;2023-05-23T01:54:08;15.40;99.90
1948;DHT22;974;52.400;9.818;2023-05-23T01:56:34;15.40;99.90
1948;DHT22;974;52.400;9.818;2023-05-23T01:59:00;15.30;99.90
1948;DHT22;974;52.400;9.818;2023-05-23T02:01:26;15.40;99.90
1948;DHT22;974;52.400;9.818;2023-05-23T02:03:52;15.20;99.90
1948;DHT22;974;52.400;9.818;2023-05-23T02:06:17;15.20;99.90
1948;DHT22;974;52.400;9.818;2023-05-23T02:08:43;15.10;99.90
1948;DHT22;974;52.400;9.818;2023-05-23T02:11:08;15.10;99.90
1948;DHT22;974;52.400;9.818;2023-05-23T02:13:34;15.00;99.90
1948;DHT22;974;52.400;9.818;2023-05-23T02:16:00;15.00;99.90
1948;DHT22;974;52.400;9.818;2023-05-23T02:18:25;15.00;99.90
1948;DHT22;974;52.400;9.818;2023-05-23T02:20:53;14.90;99.90
1948;DHT22;974;52.400;9.818;2023-05-23T02:23:20;14.90;99.90
1948;DHT22;974;52.400;9.818;2023-05-23T02:25:46;14.90;99.90
1948;DHT22;974;52.400;9.818;2023-05-23T02:28:11;14.90;99.90
1948;DHT22;974;52.400;9.818;2023-05-23T02:30:38;14.90;99.90
1948;DHT22;974;52.400;9.818;2023-05-23T02:33:06;14.90;99.90
1948;DHT22;974;52.400;9.818;2023-05-23T02:35:32;14.80;99.90
1948;DHT22;974;52.400;9.818;2023-05-23T02:37:58;14.80;99.90
1948;DHT22;974;52.400;9.818;2023-05-23T02:40:23;14.80;99.90
1948;DHT22;974;52.400;9.818;2023-05-23T02:42:49;14.80;99.90
1948;DHT22;974;52.400;9.818;2023-05-23T02:45:16;14.80;99.90
1948;DHT22;974;52.400;9.818;2023-05-23T02:47:42;14.70;99.90
1948;DHT22;974;52.400;9.818;2023-05-23T02:50:07;14.80;99.90
1948;DHT22;974;52.400;9.818;2023-05-23T02:52:33;14.80;99.90
1948;DHT22;974;52.400;9.818;2023-05-23T02:54:58;14.70;99.90
1948;DHT22;974;52.400;9.818;2023-05-23T02:57:24;14.60;99.90
1948;DHT22;974;52.400;9.818;2023-05-23T02:59:50;14.60;99.90
1948;DHT22;974;52.400;9.818;2023-05-23T03:02:15;14.60;99.90
1948;DHT22;974;52.400;9.818;2023-05-23T03:04:41;14.60;99.90
1948;DHT22;974;52.400;9.818;2023-05-23T03:07:06;14.40;99.90
1948;DHT22;974;52.400;9.818;2023-05-23T03:09:32;14.50;99.90
1948;DHT22;974;52.400;9.818;2023-05-23T03:11:57;14.60;99.90
1948;DHT22;974;52.400;9.818;2023-05-23T03:14:23;14.60;99.90
1948;DHT22;974;52.400;9.818;2023-05-23T03:16:48;14.60;99.90
1948;DHT22;974;52.400;9.818;2023-05-23T03:19:14;14.50;99.90
1948;DHT22;974;52.400;9.818;2023-05-23T03:21:39;14.50;99.90
1948;DHT22;974;52.400;9.818;2023-05-23T03:24:05;14.50;99.90
1948;DHT22;974;52.400;9.818;2023-05-23T03:26:31;14.50;99.90
1948;DHT22;974;52.400;9.818;2023-05-23T03:28:56;14.50;99.90
1948;DHT22;974;52.400;9.818;2023-05-23T03:31:22;14.50;99.90
1948;DHT22;974;52.400;9.818;2023-05-23T03:33:47;14.50;99.90
1948;DHT22;974;52.400;9.818;2023-05-23T03:36:13;14.50;99.90
1948;DHT22;974;52.400;9.818;2023-05-23T03:38:39;14.50;99.90
1948;DHT22;974;52.400;9.818;2023-05-23T03:41:05;14.40;99.90
1948;DHT22;974;52.400;9.818;2023-05-23T03:43:30;14.50;99.90
1948;DHT22;974;52.400;9.818;2023-05-23T03:45:56;14.50;99.90
1948;DHT22;974;52.400;9.818;2023-05-23T03:48:21;14.50;99.90
1948;DHT22;974;52.400;9.818;2023-05-23T03:50:47;14.50;99.90
1948;DHT22;974;52.400;9.818;2023-05-23T03:53:12;14.40;99.90
1948;DHT22;974;52.400;9.818;2023-05-23T03:55:38;14.40;99.90
1948;DHT22;974;52.400;9.818;2023-05-23T03:58:03;14.50;99.90
1948;DHT22;974;52.400;9.818;2023-05-23T04:00:29;14.40;99.90
1948;DHT22;974;52.400;9.818;2023-05-23T04:02:54;14.40;99.90
1948;DHT22;974;52.400;9.818;2023-05-23T04:05:21;14.40;99.90
1948;DHT22;974;52.400;9.818;2023-05-23T04:07:47;14.50;99.90
1948;DHT22;974;52.400;9.818;2023-05-23T04:10:13;14.50;99.90
1948;DHT22;974;52.400;9.818;2023-05-23T04:12:38;14.50;99.90
1948;DHT22;974;52.400;9.818;2023-05-23T04:15:06;14.50;99.90
1948;DHT22;974;52.400;9.818;2023-05-23T04:17:32;14.50;99.90
1948;DHT22;974;52.400;9.818;2023-05-23T04:19:57;14.50;99.90
1948;DHT22;974;52.400;9.818;2023-05-23T04:22:23;14.50;99.90
1948;DHT22;974;52.400;9.818;2023-05-23T04:24:48;14.40;99.90
1948;DHT22;974;52.400;9.818;2023-05-23T04:27:14;14.40;99.90
1948;DHT22;974;52.400;9.818;2023-05-23T04:29:39;14.40;99.90
1948;DHT22;974;52.400;9.818;2023-05-23T04:32:06;14.40;99.90
1948;DHT22;974;52.400;9.818;2023-05-23T04:34:32;14.40;99.90
1948;DHT22;974;52.400;9.818;2023-05-23T04:36:59;14.40;99.90
1948;DHT22;974;52.400;9.818;2023-05-23T04:39:26;14.40;99.90
1948;DHT22;974;52.400;9.818;2023-05-23T04:41:52;14.40;99.90
1948;DHT22;974;52.400;9.818;2023-05-23T04:44:18;14.40;99.90
1948;DHT22;974;52.400;9.818;2023-05-23T04:46:44;14.40;99.90
1948;DHT22;974;52.400;9.818;2023-05-23T04:49:10;14.40;99.90
1948;DHT22;974;52.400;9.818;2023-05-23T04:51:37;14.40;99.90
1948;DHT22;974;52.400;9.818;2023-05-23T04:54:03;14.50;99.90
1948;DHT22;974;52.400;9.818;2023-05-23T04:56:28;14.40;99.90
1948;DHT22;974;52.400;9.818;2023-05-23T04:58:54;14.40;99.90
1948;DHT22;974;52.400;9.818;2023-05-23T05:01:20;14.40;99.90
1948;DHT22;974;52.400;9.818;2023-05-23T05:03:48;14.40;99.90
1948;DHT22;974;52.400;9.818;2023-05-23T05:06:14;14.40;99.90
1948;DHT22;974;52.400;9.818;2023-05-23T05:08:40;14.30;99.90
1948;DHT22;974;52.400;9.818;2023-05-23T05:11:06;14.30;99.90
1948;DHT22;974;52.400;9.818;2023-05-23T05:13:31;14.30;99.90
1948;DHT22;974;52.400;9.818;2023-05-23T05:15:57;14.30;99.90
1948;DHT22;974;52.400;9.818;2023-05-23T05:18:24;14.30;99.90
1948;DHT22;974;52.400;9.818;2023-05-23T05:20:50;14.20;99.90
1948;DHT22;974;52.400;9.818;2023-05-23T05:23:15;14.20;99.90
1948;DHT22;974;52.400;9.818;2023-05-23T05:25:41;14.20;99.90
1948;DHT22;974;52.400;9.818;2023-05-23T05:28:06;14.20;99.90
1948;DHT22;974;52.400;9.818;2023-05-23T05:30:32;14.20;99.90
1948;DHT22;974;52.400;9.818;2023-05-23T05:32:59;14.20;99.90
1948;DHT22;974;52.400;9.818;2023-05-23T05:35:26;14.10;99.90
1948;DHT22;974;52.400;9.818;2023-05-23T05:37:51;14.20;99.90
1948;DHT22;974;52.400;9.818;2023-05-23T05:40:17;14.20;99.90
1948;DHT22;974;52.400;9.818;2023-05-23T05:42:42;14.10;99.90
1948;DHT22;974;52.400;9.818;2023-05-23T05:45:08;14.10;99.90
1948;DHT22;974;52.400;9.818;2023-05-23T05:47:35;14.20;99.90
1948;DHT22;974;52.400;9.818;2023-05-23T05:50:06;14.20;99.90
1948;DHT22;974;52.400;9.818;2023-05-23T05:52:33;14.20;99.90
1948;DHT22;974;52.400;9.818;2023-05-23T05:55:06;14.20;99.90
1948;DHT22;974;52.400;9.818;2023-05-23T05:57:32;14.20;99.90
1948;DHT22;974;52.400;9.818;2023-05-23T05:59:58;14.20;99.90
1948;DHT22;974;52.400;9.818;2023-05-23T06:02:23;14.20;99.90
1948;DHT22;974;52.400;9.818;2023-05-23T06:04:49;14.20;99.90
1948;DHT22;974;52.400;9.818;2023-05-23T06:07:14;14.20;99.90
1948;DHT22;974;52.400;9.818;2023-05-23T06:09:40;14.10;99.90
1948;DHT22;974;52.400;9.818;2023-05-23T06:12:05;14.20;99.90
1948;DHT22;974;52.400;9.818;2023-05-23T06:14:31;14.20;99.90
1948;DHT22;974;52.400;9.818;2023-05-23T06:16:56;14.20;99.90
1948;DHT22;974;52.400;9.818;2023-05-23T06:19:22;14.20;99.90
1948;DHT22;974;52.400;9.818;2023-05-23T06:21:47;14.20;99.90
1948;DHT22;974;52.400;9.818;2023-05-23T06:24:13;14.20;99.90
1948;DHT22;974;52.400;9.818;2023-05-23T06:26:38;14.20;99.90
1948;DHT22;974;52.400;9.818;2023-05-23T06:29:04;14.10;99.90
1948;DHT22;974;52.400;9.818;2023-05-23T06:31:29;14.20;99.90
1948;DHT22;974;52.400;9.818;2023-05-23T06:33:55;14.20;99.90
1948;DHT22;974;52.400;9.818;2023-05-23T06:36:21;14.20;99.90
1948;DHT22;974;52.400;9.818;2023-05-23T06:38:46;14.20;99.90
1948;DHT22;974;52.400;9.818;2023-05-23T06:41:12;14.20;99.90
1948;DHT22;974;52.400;9.818;2023-05-23T06:43:37;14.20;99.90
1948;DHT22;974;52.400;9.818;2023-05-23T06:46:03;14.20;99.90
1948;DHT22;974;52.400;9.818;2023-05-23T06:48:29;14.20;99.90
1948;DHT22;974;52.400;9.818;2023-05-23T06:50:54;14.20;99.90
1948;DHT22;974;52.400;9.818;2023-05-23T06:53:20;14.20;99.90
1948;DHT22;974;52.400;9.818;2023-05-23T06:55:45;14.10;99.90
1948;DHT22;974;52.400;9.818;2023-05-23T06:58:11;14.10;99.90
1948;DHT22;974;52.400;9.818;2023-05-23T07:00:36;14.00;99.90
1948;DHT22;974;52.400;9.818;2023-05-23T07:03:03;14.10;99.90
1948;DHT22;974;52.400;9.818;2023-05-23T07:05:28;14.10;99.90
1948;DHT22;974;52.400;9.818;2023-05-23T07:07:54;14.10;99.90
1948;DHT22;974;52.400;9.818;2023-05-23T07:10:20;14.10;99.90
1948;DHT22;974;52.400;9.818;2023-05-23T07:12:46;14.10;99.90
1948;DHT22;974;52.400;9.818;2023-05-23T07:15:11;14.10;99.90
1948;DHT22;974;52.400;9.818;2023-05-23T07:17:39;13.90;99.90
1948;DHT22;974;52.400;9.818;2023-05-23T07:20:05;13.90;99.90
1948;DHT22;974;52.400;9.818;2023-05-23T07:22:31;13.90;99.90
1948;DHT22;974;52.400;9.818;2023-05-23T07:24:56;13.90;99.90
1948;DHT22;974;52.400;9.818;2023-05-23T07:27:22;13.90;99.90
1948;DHT22;974;52.400;9.818;2023-05-23T07:29:47;13.90;99.90
1948;DHT22;974;52.400;9.818;2023-05-23T07:32:13;13.90;99.90
1948;DHT22;974;52.400;9.818;2023-05-23T07:34:38;13.90;99.90
1948;DHT22;974;52.400;9.818;2023-05-23T07:37:04;13.80;99.90
1948;DHT22;974;52.400;9.818;2023-05-23T07:39:30;13.80;99.90
1948;DHT22;974;52.400;9.818;2023-05-23T07:41:55;13.80;99.90
1948;DHT22;974;52.400;9.818;2023-05-23T07:44:21;13.80;99.90
1948;DHT22;974;52.400;9.818;2023-05-23T07:46:46;13.80;99.90
1948;DHT22;974;52.400;9.818;2023-05-23T07:49:12;13.80;99.90
1948;DHT22;974;52.400;9.818;2023-05-23T07:51:37;13.70;99.90
1948;DHT22;974;52.400;9.818;2023-05-23T07:54:03;13.70;99.90
1948;DHT22;974;52.400;9.818;2023-05-23T07:56:28;13.70;99.90
1948;DHT22;974;52.400;9.818;2023-05-23T07:58:54;13.70;99.90
1948;DHT22;974;52.400;9.818;2023-05-23T08:01:19;13.60;99.90
1948;DHT22;974;52.400;9.818;2023-05-23T08:03:46;13.60;99.90
1948;DHT22;974;52.400;9.818;2023-05-23T08:06:11;13.70;99.90
1948;DHT22;974;52.400;9.818;2023-05-23T08:08:37;13.60;99.90
1948;DHT22;974;52.400;9.818;2023-05-23T08:11:02;13.60;99.90
1948;DHT22;974;52.400;9.818;2023-05-23T08:13:29;13.60;99.90
1948;DHT22;974;52.400;9.818;2023-05-23T08:15:55;13.60;99.90
1948;DHT22;974;52.400;9.818;2023-05-23T08:18:21;13.50;99.90
1948;DHT22;974;52.400;9.818;2023-05-23T08:20:46;13.50;99.90
1948;DHT22;974;52.400;9.818;2023-05-23T08:23:11;13.50;99.90
1948;DHT22;974;52.400;9.818;2023-05-23T08:25:38;13.60;99.90
1948;DHT22;974;52.400;9.818;2023-05-23T08:28:04;13.50;99.90
1948;DHT22;974;52.400;9.818;2023-05-23T08:30:29;13.50;99.90
1948;DHT22;974;52.400;9.818;2023-05-23T08:32:56;13.40;99.90
1948;DHT22;974;52.400;9.818;2023-05-23T08:35:22;13.40;99.90
1948;DHT22;974;52.400;9.818;2023-05-23T08:37:49;13.40;99.90
1948;DHT22;974;52.400;9.818;2023-05-23T08:40:19;13.30;99.90
1948;DHT22;974;52.400;9.818;2023-05-23T08:42:46;13.30;99.90
1948;DHT22;974;52.400;9.818;2023-05-23T08:45:12;13.40;99.90
1948;DHT22;974;52.400;9.818;2023-05-23T08:47:43;13.30;99.90
1948;DHT22;974;52.400;9.818;2023-05-23T08:50:14;13.20;99.90
1948;DHT22;974;52.400;9.818;2023-05-23T08:52:43;13.30;99.90
1948;DHT22;974;52.400;9.818;2023-05-23T08:55:12;13.20;99.90
1948;DHT22;974;52.400;9.818;2023-05-23T08:57:38;13.20;99.90
1948;DHT22;974;52.400;9.818;2023-05-23T09:00:09;13.10;99.90
1948;DHT22;974;52.400;9.818;2023-05-23T09:02:39;13.10;99.90
1948;DHT22;974;52.400;9.818;2023-05-23T09:05:07;13.10;99.90
1948;DHT22;974;52.400;9.818;2023-05-23T09:07:34;13.00;99.90
1948;DHT22;974;52.400;9.818;2023-05-23T09:10:00;13.00;99.90
1948;DHT22;974;52.400;9.818;2023-05-23T09:12:25;13.00;99.90
1948;DHT22;974;52.400;9.818;2023-05-23T09:14:51;13.00;99.90
1948;DHT22;974;52.400;9.818;2023-05-23T09:17:20;12.90;99.90
1948;DHT22;974;52.400;9.818;2023-05-23T09:19:46;13.00;99.90
1948;DHT22;974;52.400;9.818;2023-05-23T09:22:12;12.90;99.90
1948;DHT22;974;52.400;9.818;2023-05-23T09:24:37;12.70;99.90
1948;DHT22;974;52.400;9.818;2023-05-23T09:27:06;12.90;99.90
1948;DHT22;974;52.400;9.818;2023-05-23T09:29:38;12.80;99.90
1948;DHT22;974;52.400;9.818;2023-05-23T09:32:12;12.80;99.90
1948;DHT22;974;52.400;9.818;2023-05-23T09:34:41;12.70;99.90
1948;DHT22;974;52.400;9.818;2023-05-23T09:37:07;12.70;99.90
1948;DHT22;974;52.400;9.818;2023-05-23T09:39:36;12.70;99.90
1948;DHT22;974;52.400;9.818;2023-05-23T09:42:03;12.70;99.90
1948;DHT22;974;52.400;9.818;2023-05-23T09:44:28;12.70;99.90
1948;DHT22;974;52.400;9.818;2023-05-23T09:46:54;12.60;99.90
1948;DHT22;974;52.400;9.818;2023-05-23T09:49:19;12.60;99.90
1948;DHT22;974;52.400;9.818;2023-05-23T09:51:59;12.60;99.90
1948;DHT22;974;52.400;9.818;2023-05-23T09:54:25;12.60;99.90
1948;DHT22;974;52.400;9.818;2023-05-23T09:56:52;12.60;99.90
1948;DHT22;974;52.400;9.818;2023-05-23T09:59:20;12.60;99.90
1948;DHT22;974;52.400;9.818;2023-05-23T10:01:50;12.60;99.90
1948;DHT22;974;52.400;9.818;2023-05-23T10:04:20;12.60;99.90
1948;DHT22;974;52.400;9.818;2023-05-23T10:06:50;12.50;99.90
1948;DHT22;974;52.400;9.818;2023-05-23T10:09:20;12.50;99.90
1948;DHT22;974;52.400;9.818;2023-05-23T10:14:38;12.50;99.90
1948;DHT22;974;52.400;9.818;2023-05-23T10:17:08;12.50;99.90
1948;DHT22;974;52.400;9.818;2023-05-23T10:19:52;12.50;99.90
1948;DHT22;974;52.400;9.818;2023-05-23T10:22:20;12.40;99.90
1948;DHT22;974;52.400;9.818;2023-05-23T10:24:47;12.30;99.90
1948;DHT22;974;52.400;9.818;2023-05-23T10:27:13;12.40;99.90
1948;DHT22;974;52.400;9.818;2023-05-23T10:29:39;12.50;99.90
1948;DHT22;974;52.400;9.818;2023-05-23T10:32:05;12.60;99.90
1948;DHT22;974;52.400;9.818;2023-05-23T10:34:36;12.60;99.90
1948;DHT22;974;52.400;9.818;2023-05-23T10:37:06;12.60;99.90
1948;DHT22;974;52.400;9.818;2023-05-23T10:39:48;12.60;99.90
1948;DHT22;974;52.400;9.818;2023-05-23T10:45:16;12.50;99.90
1948;DHT22;974;52.400;9.818;2023-05-23T10:47:42;12.50;99.90
1948;DHT22;974;52.400;9.818;2023-05-23T10:50:11;12.40;99.90
1948;DHT22;974;52.400;9.818;2023-05-23T10:52:39;12.40;99.90
1948;DHT22;974;52.400;9.818;2023-05-23T10:55:15;12.40;99.90
1948;DHT22;974;52.400;9.818;2023-05-23T10:57:42;12.40;99.90
1948;DHT22;974;52.400;9.818;2023-05-23T11:00:13;12.40;99.90
1948;DHT22;974;52.400;9.818;2023-05-23T11:02:52;12.40;99.90
1948;DHT22;974;52.400;9.818;2023-05-23T11:05:23;12.50;99.90
1948;DHT22;974;52.400;9.818;2023-05-23T11:10:54;12.50;99.90
1948;DHT22;974;52.400;9.818;2023-05-23T11:13:21;12.40;99.90
1948;DHT22;974;52.400;9.818;2023-05-23T11:15:47;12.30;99.90
1948;DHT22;974;52.400;9.818;2023-05-23T11:18:28;12.30;99.90
1948;DHT22;974;52.400;9.818;2023-05-23T11:20:57;12.20;99.90
1948;DHT22;974;52.400;9.818;2023-05-23T11:23:38;12.20;99.90
1948;DHT22;974;52.400;9.818;2023-05-23T11:26:28;12.10;99.90
1948;DHT22;974;52.400;9.818;2023-05-23T11:28:57;12.20;99.90
1948;DHT22;974;52.400;9.818;2023-05-23T11:31:23;12.20;99.90
1948;DHT22;974;52.400;9.818;2023-05-23T11:33:52;12.10;99.90
1948;DHT22;974;52.400;9.818;2023-05-23T11:36:20;12.00;99.90
1948;DHT22;974;52.400;9.818;2023-05-23T11:38:46;12.00;99.90
1948;DHT22;974;52.400;9.818;2023-05-23T11:41:11;11.90;99.90
1948;DHT22;974;52.400;9.818;2023-05-23T11:43:51;11.90;99.90
1948;DHT22;974;52.400;9.818;2023-05-23T11:46:17;12.00;99.90
1948;DHT22;974;52.400;9.818;2023-05-23T11:48:46;12.10;99.90
1948;DHT22;974;52.400;9.818;2023-05-23T11:51:12;12.10;99.90
1948;DHT22;974;52.400;9.818;2023-05-23T11:53:37;12.10;99.90
1948;DHT22;974;52.400;9.818;2023-05-23T11:56:03;12.20;99.90
1948;DHT22;974;52.400;9.818;2023-05-23T11:58:36;12.20;99.90
1948;DHT22;974;52.400;9.818;2023-05-23T12:01:04;12.20;99.90
1948;DHT22;974;52.400;9.818;2023-05-23T12:03:30;12.30;99.90
1948;DHT22;974;52.400;9.818;2023-05-23T12:05:57;12.30;99.90
1948;DHT22;974;52.400;9.818;2023-05-23T12:08:22;12.30;99.90
1948;DHT22;974;52.400;9.818;2023-05-23T12:10:51;12.40;99.90
1948;DHT22;974;52.400;9.818;2023-05-23T12:13:18;12.50;99.90
1948;DHT22;974;52.400;9.818;2023-05-23T12:15:43;12.70;99.90
1948;DHT22;974;52.400;9.818;2023-05-23T12:18:11;12.90;99.90
1948;DHT22;974;52.400;9.818;2023-05-23T12:20:37;13.00;99.90
1948;DHT22;974;52.400;9.818;2023-05-23T12:23:05;13.30;99.90
1948;DHT22;974;52.400;9.818;2023-05-23T12:25:40;13.40;99.90
1948;DHT22;974;52.400;9.818;2023-05-23T12:28:06;13.20;99.90
1948;DHT22;974;52.400;9.818;2023-05-23T12:30:40;13.40;99.90
1948;DHT22;974;52.400;9.818;2023-05-23T12:33:09;13.20;99.90
1948;DHT22;974;52.400;9.818;2023-05-23T12:35:36;13.20;99.90
1948;DHT22;974;52.400;9.818;2023-05-23T12:38:02;13.30;99.90
1948;DHT22;974;52.400;9.818;2023-05-23T12:40:31;13.20;99.90
1948;DHT22;974;52.400;9.818;2023-05-23T12:42:56;13.40;99.90
1948;DHT22;974;52.400;9.818;2023-05-23T12:45:33;13.40;99.90
1948;DHT22;974;52.400;9.818;2023-05-23T12:48:04;13.50;99.90
1948;DHT22;974;52.400;9.818;2023-05-23T12:50:30;13.60;99.90
1948;DHT22;974;52.400;9.818;2023-05-23T12:52:56;13.60;99.90
1948;DHT22;974;52.400;9.818;2023-05-23T12:55:21;13.50;99.90
1948;DHT22;974;52.400;9.818;2023-05-23T12:57:47;13.40;99.90
1948;DHT22;974;52.400;9.818;2023-05-23T13:00:13;13.40;99.90
1948;DHT22;974;52.400;9.818;2023-05-23T13:02:38;13.40;99.90
1948;DHT22;974;52.400;9.818;2023-05-23T13:05:05;13.80;99.90
1948;DHT22;974;52.400;9.818;2023-05-23T13:07:30;14.20;99.90
1948;DHT22;974;52.400;9.818;2023-05-23T13:09:56;14.30;99.90
1948;DHT22;974;52.400;9.818;2023-05-23T13:12:22;14.50;99.90
1948;DHT22;974;52.400;9.818;2023-05-23T13:14:48;14.60;99.90
1948;DHT22;974;52.400;9.818;2023-05-23T13:17:14;14.80;99.90
1948;DHT22;974;52.400;9.818;2023-05-23T13:19:39;14.80;99.90
1948;DHT22;974;52.400;9.818;2023-05-23T13:22:06;14.90;99.90
1948;DHT22;974;52.400;9.818;2023-05-23T13:24:35;15.00;99.90
1948;DHT22;974;52.400;9.818;2023-05-23T13:27:02;14.90;99.90
1948;DHT22;974;52.400;9.818;2023-05-23T13:29:27;14.90;99.90
1948;DHT22;974;52.400;9.818;2023-05-23T13:31:53;14.90;99.90
1948;DHT22;974;52.400;9.818;2023-05-23T13:34:18;15.00;99.90
1948;DHT22;974;52.400;9.818;2023-05-23T13:36:44;15.20;99.90
1948;DHT22;974;52.400;9.818;2023-05-23T13:39:09;15.20;99.90
1948;DHT22;974;52.400;9.818;2023-05-23T13:41:35;15.40;99.90
1948;DHT22;974;52.400;9.818;2023-05-23T13:44:00;15.50;99.90
1948;DHT22;974;52.400;9.818;2023-05-23T13:46:26;15.70;99.90
1948;DHT22;974;52.400;9.818;2023-05-23T13:48:51;16.10;99.90
1948;DHT22;974;52.400;9.818;2023-05-23T13:51:17;16.00;99.90
1948;DHT22;974;52.400;9.818;2023-05-23T13:53:42;16.00;99.90
1948;DHT22;974;52.400;9.818;2023-05-23T13:56:08;15.80;99.90
1948;DHT22;974;52.400;9.818;2023-05-23T13:58:34;15.60;99.90
1948;DHT22;974;52.400;9.818;2023-05-23T14:00:59;15.80;99.90
1948;DHT22;974;52.400;9.818;2023-05-23T14:03:25;15.70;99.90
1948;DHT22;974;52.400;9.818;2023-05-23T14:05:50;15.60;99.90
1948;DHT22;974;52.400;9.818;2023-05-23T14:08:16;15.50;99.90
1948;DHT22;974;52.400;9.818;2023-05-23T14:10:41;15.60;99.90
1948;DHT22;974;52.400;9.818;2023-05-23T14:13:07;15.70;99.90
1948;DHT22;974;52.400;9.818;2023-05-23T14:15:33;15.70;99.90
1948;DHT22;974;52.400;9.818;2023-05-23T14:17:59;15.60;99.90
1948;DHT22;974;52.400;9.818;2023-05-23T14:20:24;15.70;99.90
1948;DHT22;974;52.400;9.818;2023-05-23T14:22:50;15.60;99.90
1948;DHT22;974;52.400;9.818;2023-05-23T14:25:16;15.70;99.90
1948;DHT22;974;52.400;9.818;2023-05-23T14:27:42;15.70;99.90
1948;DHT22;974;52.400;9.818;2023-05-23T14:30:09;15.70;99.90
1948;DHT22;974;52.400;9.818;2023-05-23T14:32:35;15.50;99.90
1948;DHT22;974;52.400;9.818;2023-05-23T14:35:07;15.30;99.90
1948;DHT22;974;52.400;9.818;2023-05-23T14:37:33;15.20;99.90
1948;DHT22;974;52.400;9.818;2023-05-23T14:39:59;15.10;99.90
1948;DHT22;974;52.400;9.818;2023-05-23T14:42:24;15.00;99.90
1948;DHT22;974;52.400;9.818;2023-05-23T14:44:52;14.90;99.90
1948;DHT22;974;52.400;9.818;2023-05-23T14:47:17;14.90;99.90
1948;DHT22;974;52.400;9.818;2023-05-23T14:49:43;15.20;99.90
1948;DHT22;974;52.400;9.818;2023-05-23T14:52:08;15.20;99.90
1948;DHT22;974;52.400;9.818;2023-05-23T14:54:34;15.30;99.90
1948;DHT22;974;52.400;9.818;2023-05-23T14:57:00;15.20;99.90
1948;DHT22;974;52.400;9.818;2023-05-23T14:59:27;15.00;99.90
1948;DHT22;974;52.400;9.818;2023-05-23T15:01:53;15.10;99.90
1948;DHT22;974;52.400;9.818;2023-05-23T15:04:19;15.20;99.90
1948;DHT22;974;52.400;9.818;2023-05-23T15:06:44;15.70;99.90
1948;DHT22;974;52.400;9.818;2023-05-23T15:09:11;15.70;99.90
1948;DHT22;974;52.400;9.818;2023-05-23T15:11:37;15.50;99.90
1948;DHT22;974;52.400;9.818;2023-05-23T15:14:03;15.30;99.90
1948;DHT22;974;52.400;9.818;2023-05-23T15:16:28;15.10;99.90
1948;DHT22;974;52.400;9.818;2023-05-23T15:18:57;14.90;99.90
1948;DHT22;974;52.400;9.818;2023-05-23T15:21:23;15.00;99.90
1948;DHT22;974;52.400;9.818;2023-05-23T15:23:48;15.20;99.90
1948;DHT22;974;52.400;9.818;2023-05-23T15:26:14;15.30;99.90
1948;DHT22;974;52.400;9.818;2023-05-23T15:28:39;15.20;99.90
1948;DHT22;974;52.400;9.818;2023-05-23T15:31:05;15.10;99.90
1948;DHT22;974;52.400;9.818;2023-05-23T15:33:30;15.30;99.90
1948;DHT22;974;52.400;9.818;2023-05-23T15:35:56;15.20;99.90
1948;DHT22;974;52.400;9.818;2023-05-23T15:38:23;15.30;99.90
1948;DHT22;974;52.400;9.818;2023-05-23T15:40:49;15.30;99.90
1948;DHT22;974;52.400;9.818;2023-05-23T15:43:16;15.20;99.90
1948;DHT22;974;52.400;9.818;2023-05-23T15:45:42;14.90;99.90
1948;DHT22;974;52.400;9.818;2023-05-23T15:48:07;14.80;99.90
1948;DHT22;974;52.400;9.818;2023-05-23T15:50:33;14.70;99.90
1948;DHT22;974;52.400;9.818;2023-05-23T15:52:58;14.60;99.90
1948;DHT22;974;52.400;9.818;2023-05-23T15:55:24;14.60;99.90
1948;DHT22;974;52.400;9.818;2023-05-23T15:57:49;14.60;99.90
1948;DHT22;974;52.400;9.818;2023-05-23T16:00:15;14.50;99.90
1948;DHT22;974;52.400;9.818;2023-05-23T16:02:42;14.50;99.90
1948;DHT22;974;52.400;9.818;2023-05-23T16:05:07;14.60;99.90
1948;DHT22;974;52.400;9.818;2023-05-23T16:07:33;14.60;99.90
1948;DHT22;974;52.400;9.818;2023-05-23T16:09:58;14.50;99.90
1948;DHT22;974;52.400;9.818;2023-05-23T16:12:24;14.50;99.90
1948;DHT22;974;52.400;9.818;2023-05-23T16:14:49;14.60;99.90
1948;DHT22;974;52.400;9.818;2023-05-23T16:17:15;14.60;99.90
1948;DHT22;974;52.400;9.818;2023-05-23T16:19:40;14.70;99.90
1948;DHT22;974;52.400;9.818;2023-05-23T16:22:06;14.60;99.90
1948;DHT22;974;52.400;9.818;2023-05-23T16:24:31;14.60;99.90
1948;DHT22;974;52.400;9.818;2023-05-23T16:26:58;14.80;99.90
1948;DHT22;974;52.400;9.818;2023-05-23T16:29:23;14.90;99.90
1948;DHT22;974;52.400;9.818;2023-05-23T16:31:49;15.00;99.90
1948;DHT22;974;52.400;9.818;2023-05-23T16:34:14;15.00;99.90
1948;DHT22;974;52.400;9.818;2023-05-23T16:36:40;14.90;99.90
1948;DHT22;974;52.400;9.818;2023-05-23T16:39:05;14.90;99.90